sensor_id;sensor_type;location;lat;lon;timestamp;temperature;humidity
16271;DHT22;8243;49.048;8.396;2022-09-09T00:01:43;15.80;99.90
16271;DHT22;8243;49.048;8.396;2022-09-09T00:04:16;15.80;99.90
16271;DHT22;8243;49.048;8.396;2022-09-09T00:07:19;15.80;99.90
16271;DHT22;8243;49.048;8.396;2022-09-09T00:09:49;15.80;99.90
16271;DHT22;8243;49.048;8.396;2022-09-09T00:12:22;15.80;99.90
16271;DHT22;8243;49.048;8.396;2022-09-09T00:15:04;15.80;99.90
16271;DHT22;8243;49.048;8.396;2022-09-09T00:17:47;15.70;99.90
16271;DHT22;8243;49.048;8.396;2022-09-09T00:23:04;15.70;99.90
16271;DHT22;8243;49.048;8.396;2022-09-09T00:25:46;15.70;99.90
16271;DHT22;8243;49.048;8.396;2022-09-09T00:28:20;15.70;99.90
16271;DHT22;8243;49.048;8.396;2022-09-09T00:30:47;15.70;99.90
16271;DHT22;8243;49.048;8.396;2022-09-09T00:33:16;15.70;99.90
16271;DHT22;8243;49.048;8.396;2022-09-09T00:35:57;15.70;99.90
16271;DHT22;8243;49.048;8.396;2022-09-09T00:38:28;15.70;99.90
16271;DHT22;8243;49.048;8.396;2022-09-09T00:41:09;15.80;99.90
16271;DHT22;8243;49.048;8.396;2022-09-09T00:43:38;15.70;99.90
16271;DHT22;8243;49.048;8.396;2022-09-09T00:52:05;15.90;99.90
16271;DHT22;8243;49.048;8.396;2022-09-09T00:57:18;15.90;99.90
16271;DHT22;8243;49.048;8.396;2022-09-09T00:59:55;16.00;99.90
16271;DHT22;8243;49.048;8.396;2022-09-09T01:05:12;16.20;99.90
16271;DHT22;8243;49.048;8.396;2022-09-09T01:07:40;16.30;99.90
16271;DHT22;8243;49.048;8.396;2022-09-09T01:10:24;16.40;99.90
16271;DHT22;8243;49.048;8.396;2022-09-09T01:12:55;16.50;99.90
16271;DHT22;8243;49.048;8.396;2022-09-09T01:15:29;16.50;99.90
16271;DHT22;8243;49.048;8.396;2022-09-09T01:18:04;16.60;99.90
16271;DHT22;8243;49.048;8.396;2022-09-09T01:20:49;16.60;99.90
16271;DHT22;8243;49.048;8.396;2022-09-09T01:26:19;16.70;99.90
16271;DHT22;8243;49.048;8.396;2022-09-09T01:28:50;16.70;99.90
16271;DHT22;8243;49.048;8.396;2022-09-09T01:31:33;16.70;99.90
16271;DHT22;8243;49.048;8.396;2022-09-09T01:34:01;16.80;99.90
16271;DHT22;8243;49.048;8.396;2022-09-09T01:36:35;16.80;99.90
16271;DHT22;8243;49.048;8.396;2022-09-09T01:39:03;16.90;99.90
16271;DHT22;8243;49.048;8.396;2022-09-09T01:41:29;16.80;99.90
16271;DHT22;8243;49.048;8.396;2022-09-09T01:43:55;16.80;99.90
16271;DHT22;8243;49.048;8.396;2022-09-09T01:46:22;16.80;99.90
16271;DHT22;8243;49.048;8.396;2022-09-09T01:48:52;16.80;99.90
16271;DHT22;8243;49.048;8.396;2022-09-09T01:51:19;16.70;99.90
16271;DHT22;8243;49.048;8.396;2022-09-09T01:53:45;16.60;99.90
16271;DHT22;8243;49.048;8.396;2022-09-09T02:01:51;16.10;99.90
16271;DHT22;8243;49.048;8.396;2022-09-09T02:06:58;15.90;99.90
16271;DHT22;8243;49.048;8.396;2022-09-09T02:09:26;15.70;99.90
16271;DHT22;8243;49.048;8.396;2022-09-09T02:12:03;15.70;99.90
16271;DHT22;8243;49.048;8.396;2022-09-09T02:14:36;15.60;99.90
16271;DHT22;8243;49.048;8.396;2022-09-09T02:17:11;15.50;99.90
16271;DHT22;8243;49.048;8.396;2022-09-09T02:19:52;15.50;99.90
16271;DHT22;8243;49.048;8.396;2022-09-09T02:22:22;15.40;99.90
16271;DHT22;8243;49.048;8.396;2022-09-09T02:24:50;15.30;99.90
16271;DHT22;8243;49.048;8.396;2022-09-09T02:27:20;15.30;99.90
16271;DHT22;8243;49.048;8.396;2022-09-09T02:29:48;15.20;99.90
16271;DHT22;8243;49.048;8.396;2022-09-09T02:32:19;15.20;99.90
16271;DHT22;8243;49.048;8.396;2022-09-09T02:34:49;15.20;99.90
16271;DHT22;8243;49.048;8.396;2022-09-09T02:37:18;15.20;99.90
16271;DHT22;8243;49.048;8.396;2022-09-09T02:39:46;15.20;99.90
16271;DHT22;8243;49.048;8.396;2022-09-09T02:42:12;15.20;99.90
16271;DHT22;8243;49.048;8.396;2022-09-09T02:44:40;15.20;99.90
16271;DHT22;8243;49.048;8.396;2022-09-09T02:55:10;15.20;99.90
16271;DHT22;8243;49.048;8.396;2022-09-09T02:57:38;15.20;99.90
16271;DHT22;8243;49.048;8.396;2022-09-09T03:00:04;15.30;99.90
16271;DHT22;8243;49.048;8.396;2022-09-09T03:02:30;15.20;99.90
16271;DHT22;8243;49.048;8.396;2022-09-09T03:04:56;15.20;99.90
16271;DHT22;8243;49.048;8.396;2022-09-09T03:07:21;15.20;99.90
16271;DHT22;8243;49.048;8.396;2022-09-09T03:09:47;15.20;99.90
16271;DHT22;8243;49.048;8.396;2022-09-09T03:12:13;15.20;99.90
16271;DHT22;8243;49.048;8.396;2022-09-09T03:14:39;15.20;99.90
16271;DHT22;8243;49.048;8.396;2022-09-09T03:17:05;15.30;99.90
16271;DHT22;8243;49.048;8.396;2022-09-09T03:19:31;15.30;99.90
16271;DHT22;8243;49.048;8.396;2022-09-09T03:21:57;15.20;99.90
16271;DHT22;8243;49.048;8.396;2022-09-09T03:24:24;15.20;99.90
16271;DHT22;8243;49.048;8.396;2022-09-09T03:26:49;15.20;99.90
16271;DHT22;8243;49.048;8.396;2022-09-09T03:29:16;15.20;99.90
16271;DHT22;8243;49.048;8.396;2022-09-09T03:31:42;15.20;99.90
16271;DHT22;8243;49.048;8.396;2022-09-09T03:34:09;15.10;99.90
16271;DHT22;8243;49.048;8.396;2022-09-09T03:36:34;15.10;99.90
16271;DHT22;8243;49.048;8.396;2022-09-09T03:39:00;15.10;99.90
16271;DHT22;8243;49.048;8.396;2022-09-09T03:41:28;15.10;99.90
16271;DHT22;8243;49.048;8.396;2022-09-09T03:43:54;15.10;99.90
16271;DHT22;8243;49.048;8.396;2022-09-09T03:46:21;15.10;99.90
16271;DHT22;8243;49.048;8.396;2022-09-09T03:48:47;15.00;99.90
16271;DHT22;8243;49.048;8.396;2022-09-09T03:51:13;15.10;99.90
16271;DHT22;8243;49.048;8.396;2022-09-09T03:53:39;15.10;99.90
16271;DHT22;8243;49.048;8.396;2022-09-09T03:56:05;14.90;99.90
16271;DHT22;8243;49.048;8.396;2022-09-09T03:58:32;14.90;99.90
16271;DHT22;8243;49.048;8.396;2022-09-09T04:00:59;14.90;99.90
16271;DHT22;8243;49.048;8.396;2022-09-09T04:03:25;14.90;99.90
16271;DHT22;8243;49.048;8.396;2022-09-09T04:05:52;14.90;99.90
16271;DHT22;8243;49.048;8.396;2022-09-09T04:08:18;14.90;99.90
16271;DHT22;8243;49.048;8.396;2022-09-09T04:10:45;14.90;99.90
16271;DHT22;8243;49.048;8.396;2022-09-09T04:13:12;14.90;99.90
16271;DHT22;8243;49.048;8.396;2022-09-09T04:15:40;15.00;99.90
16271;DHT22;8243;49.048;8.396;2022-09-09T04:18:12;15.00;99.90
16271;DHT22;8243;49.048;8.396;2022-09-09T04:20:42;15.00;99.90
16271;DHT22;8243;49.048;8.396;2022-09-09T04:23:08;15.10;99.90
16271;DHT22;8243;49.048;8.396;2022-09-09T04:25:34;15.10;99.90
16271;DHT22;8243;49.048;8.396;2022-09-09T04:28:02;15.10;99.90
16271;DHT22;8243;49.048;8.396;2022-09-09T04:30:29;15.10;99.90
16271;DHT22;8243;49.048;8.396;2022-09-09T04:32:56;15.10;99.90
16271;DHT22;8243;49.048;8.396;2022-09-09T04:35:21;15.10;99.90
16271;DHT22;8243;49.048;8.396;2022-09-09T04:37:47;15.20;99.90
16271;DHT22;8243;49.048;8.396;2022-09-09T04:40:13;15.20;99.90
16271;DHT22;8243;49.048;8.396;2022-09-09T04:42:40;15.20;99.90
16271;DHT22;8243;49.048;8.396;2022-09-09T04:45:09;15.20;99.90
16271;DHT22;8243;49.048;8.396;2022-09-09T04:47:36;15.30;99.90
16271;DHT22;8243;49.048;8.396;2022-09-09T04:50:02;15.30;99.90
16271;DHT22;8243;49.048;8.396;2022-09-09T04:52:28;15.40;99.90
16271;DHT22;8243;49.048;8.396;2022-09-09T04:54:53;15.50;99.90
16271;DHT22;8243;49.048;8.396;2022-09-09T04:57:19;15.50;99.90
16271;DHT22;8243;49.048;8.396;2022-09-09T04:59:45;15.50;99.90
16271;DHT22;8243;49.048;8.396;2022-09-09T05:02:11;15.60;99.90
16271;DHT22;8243;49.048;8.396;2022-09-09T05:04:39;15.60;99.90
16271;DHT22;8243;49.048;8.396;2022-09-09T05:07:23;15.70;99.90
16271;DHT22;8243;49.048;8.396;2022-09-09T05:09:54;15.70;99.90
16271;DHT22;8243;49.048;8.396;2022-09-09T05:12:20;15.80;99.90
16271;DHT22;8243;49.048;8.396;2022-09-09T05:14:47;15.80;99.90
16271;DHT22;8243;49.048;8.396;2022-09-09T05:17:13;15.90;99.90
16271;DHT22;8243;49.048;8.396;2022-09-09T05:19:38;15.90;99.90
16271;DHT22;8243;49.048;8.396;2022-09-09T05:22:04;15.80;99.90
16271;DHT22;8243;49.048;8.396;2022-09-09T05:24:30;15.90;99.90
16271;DHT22;8243;49.048;8.396;2022-09-09T05:26:58;15.90;99.90
16271;DHT22;8243;49.048;8.396;2022-09-09T05:29:25;16.00;99.90
16271;DHT22;8243;49.048;8.396;2022-09-09T05:31:51;16.00;99.90
16271;DHT22;8243;49.048;8.396;2022-09-09T05:34:17;16.10;99.90
16271;DHT22;8243;49.048;8.396;2022-09-09T05:36:42;16.10;99.90
16271;DHT22;8243;49.048;8.396;2022-09-09T05:39:08;16.20;99.90
16271;DHT22;8243;49.048;8.396;2022-09-09T05:41:34;16.20;99.90
16271;DHT22;8243;49.048;8.396;2022-09-09T05:44:01;16.20;99.90
16271;DHT22;8243;49.048;8.396;2022-09-09T05:46:29;16.30;99.90
16271;DHT22;8243;49.048;8.396;2022-09-09T05:48:55;16.30;99.90
16271;DHT22;8243;49.048;8.396;2022-09-09T05:51:23;16.30;99.90
16271;DHT22;8243;49.048;8.396;2022-09-09T05:53:49;16.30;99.90
16271;DHT22;8243;49.048;8.396;2022-09-09T05:56:20;16.40;99.90
16271;DHT22;8243;49.048;8.396;2022-09-09T05:58:52;16.50;99.90
16271;DHT22;8243;49.048;8.396;2022-09-09T06:01:25;16.80;99.90
16271;DHT22;8243;49.048;8.396;2022-09-09T06:03:52;17.50;99.90
16271;DHT22;8243;49.048;8.396;2022-09-09T06:06:20;18.40;99.90
16271;DHT22;8243;49.048;8.396;2022-09-09T06:08:47;19.20;99.90
16271;DHT22;8243;49.048;8.396;2022-09-09T06:11:16;19.70;99.90
16271;DHT22;8243;49.048;8.396;2022-09-09T06:13:46;19.70;99.90
16271;DHT22;8243;49.048;8.396;2022-09-09T06:16:18;19.40;99.90
16271;DHT22;8243;49.048;8.396;2022-09-09T06:18:44;19.10;98.40
16271;DHT22;8243;49.048;8.396;2022-09-09T06:21:18;18.90;99.40
16271;DHT22;8243;49.048;8.396;2022-09-09T06:23:45;18.70;99.70
16271;DHT22;8243;49.048;8.396;2022-09-09T06:26:27;18.60;99.90
16271;DHT22;8243;49.048;8.396;2022-09-09T06:28:54;18.40;99.90
16271;DHT22;8243;49.048;8.396;2022-09-09T06:31:25;18.40;99.90
16271;DHT22;8243;49.048;8.396;2022-09-09T06:33:52;18.30;99.90
16271;DHT22;8243;49.048;8.396;2022-09-09T06:36:20;18.30;99.90
16271;DHT22;8243;49.048;8.396;2022-09-09T06:38:47;18.40;99.90
16271;DHT22;8243;49.048;8.396;2022-09-09T06:41:14;18.30;99.90
16271;DHT22;8243;49.048;8.396;2022-09-09T06:43:40;18.40;99.90
16271;DHT22;8243;49.048;8.396;2022-09-09T06:46:12;18.50;99.90
16271;DHT22;8243;49.048;8.396;2022-09-09T06:48:39;18.50;99.90
16271;DHT22;8243;49.048;8.396;2022-09-09T06:51:08;18.70;99.40
16271;DHT22;8243;49.048;8.396;2022-09-09T06:53:35;18.90;99.90
16271;DHT22;8243;49.048;8.396;2022-09-09T06:56:13;19.00;97.70
16271;DHT22;8243;49.048;8.396;2022-09-09T06:58:42;19.20;96.80
16271;DHT22;8243;49.048;8.396;2022-09-09T07:01:10;19.10;93.80
16271;DHT22;8243;49.048;8.396;2022-09-09T07:03:39;18.90;94.00
16271;DHT22;8243;49.048;8.396;2022-09-09T07:06:06;18.90;93.60
16271;DHT22;8243;49.048;8.396;2022-09-09T07:08:32;18.90;93.90
16271;DHT22;8243;49.048;8.396;2022-09-09T07:11:07;19.10;93.30
16271;DHT22;8243;49.048;8.396;2022-09-09T07:13:34;19.00;92.30
16271;DHT22;8243;49.048;8.396;2022-09-09T07:16:12;19.10;90.90
16271;DHT22;8243;49.048;8.396;2022-09-09T07:18:39;19.70;90.40
16271;DHT22;8243;49.048;8.396;2022-09-09T07:21:04;20.50;74.80
16271;DHT22;8243;49.048;8.396;2022-09-09T07:23:32;20.70;69.70
16271;DHT22;8243;49.048;8.396;2022-09-09T07:25:58;20.70;68.20
16271;DHT22;8243;49.048;8.396;2022-09-09T07:28:25;20.40;68.80
16271;DHT22;8243;49.048;8.396;2022-09-09T07:30:59;20.10;68.80
16271;DHT22;8243;49.048;8.396;2022-09-09T07:33:29;19.80;74.50
16271;DHT22;8243;49.048;8.396;2022-09-09T07:36:06;19.50;83.60
16271;DHT22;8243;49.048;8.396;2022-09-09T07:38:37;19.30;87.70
16271;DHT22;8243;49.048;8.396;2022-09-09T07:41:08;19.50;87.40
16271;DHT22;8243;49.048;8.396;2022-09-09T07:43:41;20.40;82.80
16271;DHT22;8243;49.048;8.396;2022-09-09T07:46:09;21.20;74.40
16271;DHT22;8243;49.048;8.396;2022-09-09T07:48:34;21.40;70.00
16271;DHT22;8243;49.048;8.396;2022-09-09T07:51:12;21.30;69.90
16271;DHT22;8243;49.048;8.396;2022-09-09T07:53:42;21.20;69.00
16271;DHT22;8243;49.048;8.396;2022-09-09T07:56:10;21.30;71.80
16271;DHT22;8243;49.048;8.396;2022-09-09T07:58:37;22.00;67.20
16271;DHT22;8243;49.048;8.396;2022-09-09T08:01:08;22.20;62.20
16271;DHT22;8243;49.048;8.396;2022-09-09T08:03:34;23.90;55.50
16271;DHT22;8243;49.048;8.396;2022-09-09T08:06:02;25.30;45.40
16271;DHT22;8243;49.048;8.396;2022-09-09T08:08:28;26.50;35.90
16271;DHT22;8243;49.048;8.396;2022-09-09T08:11:08;26.10;33.20
16271;DHT22;8243;49.048;8.396;2022-09-09T08:13:36;25.20;34.40
16271;DHT22;8243;49.048;8.396;2022-09-09T08:16:13;24.20;35.70
16271;DHT22;8243;49.048;8.396;2022-09-09T08:18:40;23.40;40.00
16271;DHT22;8243;49.048;8.396;2022-09-09T08:21:17;22.90;42.60
16271;DHT22;8243;49.048;8.396;2022-09-09T08:23:45;22.50;46.90
16271;DHT22;8243;49.048;8.396;2022-09-09T08:26:13;22.20;47.70
16271;DHT22;8243;49.048;8.396;2022-09-09T08:28:40;21.80;48.60
16271;DHT22;8243;49.048;8.396;2022-09-09T08:31:15;21.80;53.10
16271;DHT22;8243;49.048;8.396;2022-09-09T08:33:42;21.30;55.60
16271;DHT22;8243;49.048;8.396;2022-09-09T08:36:13;21.10;58.80
16271;DHT22;8243;49.048;8.396;2022-09-09T08:38:41;21.40;59.10
16271;DHT22;8243;49.048;8.396;2022-09-09T08:43:43;23.60;41.70
16271;DHT22;8243;49.048;8.396;2022-09-09T08:46:22;23.50;42.70
16271;DHT22;8243;49.048;8.396;2022-09-09T08:48:57;23.90;40.40
16271;DHT22;8243;49.048;8.396;2022-09-09T08:51:27;23.90;39.40
16271;DHT22;8243;49.048;8.396;2022-09-09T08:53:57;24.30;37.10
16271;DHT22;8243;49.048;8.396;2022-09-09T08:56:24;25.30;31.00
16271;DHT22;8243;49.048;8.396;2022-09-09T08:58:53;24.90;31.10
16271;DHT22;8243;49.048;8.396;2022-09-09T09:04:14;23.00;38.50
16271;DHT22;8243;49.048;8.396;2022-09-09T09:07:01;22.30;45.50
16271;DHT22;8243;49.048;8.396;2022-09-09T09:10:14;21.60;50.80
16271;DHT22;8243;49.048;8.396;2022-09-09T09:12:32;21.10;54.60
16271;DHT22;8243;49.048;8.396;2022-09-09T09:15:00;21.00;56.60
16271;DHT22;8243;49.048;8.396;2022-09-09T09:17:28;21.00;60.70
16271;DHT22;8243;49.048;8.396;2022-09-09T09:19:57;21.20;59.90
16271;DHT22;8243;49.048;8.396;2022-09-09T09:22:50;21.80;54.70
16271;DHT22;8243;49.048;8.396;2022-09-09T09:25:23;22.90;47.00
16271;DHT22;8243;49.048;8.396;2022-09-09T09:27:59;23.10;45.30
16271;DHT22;8243;49.048;8.396;2022-09-09T09:30:29;23.40;40.60
16271;DHT22;8243;49.048;8.396;2022-09-09T09:35:49;25.30;34.50
16271;DHT22;8243;49.048;8.396;2022-09-09T09:38:18;26.10;27.40
16271;DHT22;8243;49.048;8.396;2022-09-09T09:40:58;25.50;26.50
16271;DHT22;8243;49.048;8.396;2022-09-09T09:43:36;25.70;25.10
16271;DHT22;8243;49.048;8.396;2022-09-09T09:46:05;25.00;25.50
16271;DHT22;8243;49.048;8.396;2022-09-09T09:48:33;25.00;25.20
16271;DHT22;8243;49.048;8.396;2022-09-09T09:51:09;25.30;26.10
16271;DHT22;8243;49.048;8.396;2022-09-09T09:53:38;25.60;24.90
16271;DHT22;8243;49.048;8.396;2022-09-09T09:56:09;26.60;21.30
16271;DHT22;8243;49.048;8.396;2022-09-09T10:03:52;26.70;18.60
16271;DHT22;8243;49.048;8.396;2022-09-09T10:06:36;26.50;19.00
16271;DHT22;8243;49.048;8.396;2022-09-09T10:09:26;26.60;19.00
16271;DHT22;8243;49.048;8.396;2022-09-09T10:20:45;25.80;18.60
16271;DHT22;8243;49.048;8.396;2022-09-09T10:34:42;25.90;19.60
16271;DHT22;8243;49.048;8.396;2022-09-09T10:39:51;25.80;19.40
16271;DHT22;8243;49.048;8.396;2022-09-09T10:42:20;26.10;18.20
16271;DHT22;8243;49.048;8.396;2022-09-09T10:45:17;25.90;18.80
16271;DHT22;8243;49.048;8.396;2022-09-09T10:48:23;25.90;19.40
16271;DHT22;8243;49.048;8.396;2022-09-09T10:51:28;26.30;18.40
16271;DHT22;8243;49.048;8.396;2022-09-09T10:57:08;25.70;19.00
16271;DHT22;8243;49.048;8.396;2022-09-09T10:59:47;25.70;19.20
16271;DHT22;8243;49.048;8.396;2022-09-09T11:02:32;25.70;17.70
16271;DHT22;8243;49.048;8.396;2022-09-09T11:05:03;25.50;18.40
16271;DHT22;8243;49.048;8.396;2022-09-09T11:07:39;25.20;18.10
16271;DHT22;8243;49.048;8.396;2022-09-09T11:10:41;25.00;19.20
16271;DHT22;8243;49.048;8.396;2022-09-09T11:13:29;25.10;19.40
16271;DHT22;8243;49.048;8.396;2022-09-09T11:16:15;25.20;19.30
16271;DHT22;8243;49.048;8.396;2022-09-09T11:18:42;25.00;19.00
16271;DHT22;8243;49.048;8.396;2022-09-09T11:21:22;24.50;18.40
16271;DHT22;8243;49.048;8.396;2022-09-09T11:23:59;24.60;19.30
16271;DHT22;8243;49.048;8.396;2022-09-09T11:26:33;24.40;19.90
16271;DHT22;8243;49.048;8.396;2022-09-09T11:40:25;24.80;18.00
16271;DHT22;8243;49.048;8.396;2022-09-09T11:43:17;24.60;17.80
16271;DHT22;8243;49.048;8.396;2022-09-09T11:45:54;24.90;18.00
16271;DHT22;8243;49.048;8.396;2022-09-09T11:51:02;25.50;16.40
16271;DHT22;8243;49.048;8.396;2022-09-09T11:53:28;25.20;17.50
16271;DHT22;8243;49.048;8.396;2022-09-09T11:56:09;25.20;18.50
16271;DHT22;8243;49.048;8.396;2022-09-09T11:58:44;25.30;18.20
16271;DHT22;8243;49.048;8.396;2022-09-09T12:01:30;25.40;18.50
16271;DHT22;8243;49.048;8.396;2022-09-09T12:06:31;25.70;18.40
16271;DHT22;8243;49.048;8.396;2022-09-09T12:09:22;25.50;19.40
16271;DHT22;8243;49.048;8.396;2022-09-09T12:11:51;25.40;19.20
16271;DHT22;8243;49.048;8.396;2022-09-09T12:14:42;25.30;19.20
16271;DHT22;8243;49.048;8.396;2022-09-09T12:19:47;25.20;19.50
16271;DHT22;8243;49.048;8.396;2022-09-09T12:22:37;24.80;19.00
16271;DHT22;8243;49.048;8.396;2022-09-09T12:31:15;23.80;20.80
16271;DHT22;8243;49.048;8.396;2022-09-09T12:33:45;23.80;21.70
16271;DHT22;8243;49.048;8.396;2022-09-09T12:36:15;23.80;22.30
16271;DHT22;8243;49.048;8.396;2022-09-09T12:38:43;23.40;22.50
16271;DHT22;8243;49.048;8.396;2022-09-09T12:41:23;23.40;24.10
16271;DHT22;8243;49.048;8.396;2022-09-09T12:43:50;23.20;25.70
16271;DHT22;8243;49.048;8.396;2022-09-09T12:46:38;23.20;29.80
16271;DHT22;8243;49.048;8.396;2022-09-09T12:49:05;22.80;32.90
16271;DHT22;8243;49.048;8.396;2022-09-09T12:51:32;22.50;34.60
16271;DHT22;8243;49.048;8.396;2022-09-09T12:53:59;22.30;43.10
16271;DHT22;8243;49.048;8.396;2022-09-09T12:56:28;22.10;46.20
16271;DHT22;8243;49.048;8.396;2022-09-09T12:58:56;22.10;52.80
16271;DHT22;8243;49.048;8.396;2022-09-09T13:01:28;22.20;54.00
16271;DHT22;8243;49.048;8.396;2022-09-09T13:03:55;22.20;52.40
16271;DHT22;8243;49.048;8.396;2022-09-09T13:06:29;22.00;50.20
16271;DHT22;8243;49.048;8.396;2022-09-09T13:09:00;21.70;55.50
16271;DHT22;8243;49.048;8.396;2022-09-09T13:12:01;21.40;55.90
16271;DHT22;8243;49.048;8.396;2022-09-09T13:14:34;21.20;61.30
16271;DHT22;8243;49.048;8.396;2022-09-09T13:17:04;20.60;65.80
16271;DHT22;8243;49.048;8.396;2022-09-09T13:19:35;20.70;60.00
16271;DHT22;8243;49.048;8.396;2022-09-09T13:22:20;21.00;60.40
16271;DHT22;8243;49.048;8.396;2022-09-09T13:25:51;21.60;59.10
16271;DHT22;8243;49.048;8.396;2022-09-09T13:27:59;22.20;48.50
16271;DHT22;8243;49.048;8.396;2022-09-09T13:30:31;22.90;49.30
16271;DHT22;8243;49.048;8.396;2022-09-09T13:33:22;23.20;42.20
16271;DHT22;8243;49.048;8.396;2022-09-09T13:36:09;23.60;39.80
16271;DHT22;8243;49.048;8.396;2022-09-09T13:41:10;23.60;39.20
16271;DHT22;8243;49.048;8.396;2022-09-09T13:43:43;23.60;38.10
16271;DHT22;8243;49.048;8.396;2022-09-09T13:46:38;23.60;38.80
16271;DHT22;8243;49.048;8.396;2022-09-09T13:54:34;22.60;38.80
16271;DHT22;8243;49.048;8.396;2022-09-09T13:57:00;22.70;41.10
16271;DHT22;8243;49.048;8.396;2022-09-09T13:59:27;22.40;39.20
16271;DHT22;8243;49.048;8.396;2022-09-09T14:01:52;22.40;39.70
16271;DHT22;8243;49.048;8.396;2022-09-09T14:04:19;22.50;40.10
16271;DHT22;8243;49.048;8.396;2022-09-09T14:06:47;22.40;40.70
16271;DHT22;8243;49.048;8.396;2022-09-09T14:09:15;22.20;42.50
16271;DHT22;8243;49.048;8.396;2022-09-09T14:11:43;21.70;63.00
16271;DHT22;8243;49.048;8.396;2022-09-09T14:14:09;21.00;73.30
16271;DHT22;8243;49.048;8.396;2022-09-09T14:16:35;20.30;73.40
16271;DHT22;8243;49.048;8.396;2022-09-09T14:19:01;19.80;75.30
16271;DHT22;8243;49.048;8.396;2022-09-09T14:21:27;19.50;86.70
16271;DHT22;8243;49.048;8.396;2022-09-09T14:23:53;19.60;99.90
16271;DHT22;8243;49.048;8.396;2022-09-09T14:26:20;19.90;99.90
16271;DHT22;8243;49.048;8.396;2022-09-09T14:28:46;20.10;99.90
16271;DHT22;8243;49.048;8.396;2022-09-09T14:31:12;20.00;98.50
16271;DHT22;8243;49.048;8.396;2022-09-09T14:33:38;20.00;99.90
16271;DHT22;8243;49.048;8.396;2022-09-09T14:36:04;20.00;99.90
16271;DHT22;8243;49.048;8.396;2022-09-09T14:38:33;19.80;99.90
16271;DHT22;8243;49.048;8.396;2022-09-09T14:41:06;19.50;99.90
16271;DHT22;8243;49.048;8.396;2022-09-09T14:43:32;19.40;99.90
16271;DHT22;8243;49.048;8.396;2022-09-09T14:46:08;19.30;99.70
16271;DHT22;8243;49.048;8.396;2022-09-09T14:48:34;19.30;99.90
16271;DHT22;8243;49.048;8.396;2022-09-09T14:51:18;19.30;99.90
16271;DHT22;8243;49.048;8.396;2022-09-09T14:56:38;18.90;99.90
16271;DHT22;8243;49.048;8.396;2022-09-09T14:59:04;18.60;99.90
16271;DHT22;8243;49.048;8.396;2022-09-09T15:01:41;18.30;99.90
16271;DHT22;8243;49.048;8.396;2022-09-09T15:04:07;18.00;99.90
16271;DHT22;8243;49.048;8.396;2022-09-09T15:07:03;17.90;99.90
16271;DHT22;8243;49.048;8.396;2022-09-09T15:09:33;17.90;99.90
16271;DHT22;8243;49.048;8.396;2022-09-09T15:12:14;18.00;99.90
16271;DHT22;8243;49.048;8.396;2022-09-09T15:15:19;18.30;99.90
16271;DHT22;8243;49.048;8.396;2022-09-09T15:17:46;18.60;99.90
16271;DHT22;8243;49.048;8.396;2022-09-09T15:20:11;18.80;99.90
16271;DHT22;8243;49.048;8.396;2022-09-09T15:26:23;19.30;99.90
16271;DHT22;8243;49.048;8.396;2022-09-09T15:29:08;19.50;99.90
16271;DHT22;8243;49.048;8.396;2022-09-09T15:31:34;19.80;99.90
16271;DHT22;8243;49.048;8.396;2022-09-09T15:34:05;20.10;99.90
16271;DHT22;8243;49.048;8.396;2022-09-09T15:36:38;20.30;99.90
16271;DHT22;8243;49.048;8.396;2022-09-09T15:39:10;20.60;99.90
16271;DHT22;8243;49.048;8.396;2022-09-09T15:41:38;20.70;99.90
16271;DHT22;8243;49.048;8.396;2022-09-09T15:44:04;20.60;99.90
16271;DHT22;8243;49.048;8.396;2022-09-09T15:46:34;20.40;99.90
16271;DHT22;8243;49.048;8.396;2022-09-09T15:49:12;20.40;99.90
16271;DHT22;8243;49.048;8.396;2022-09-09T15:51:46;20.70;99.90
16271;DHT22;8243;49.048;8.396;2022-09-09T15:54:17;20.80;99.90
16271;DHT22;8243;49.048;8.396;2022-09-09T15:56:44;20.70;99.90
16271;DHT22;8243;49.048;8.396;2022-09-09T15:59:16;20.40;99.90
16271;DHT22;8243;49.048;8.396;2022-09-09T16:01:42;20.10;99.90
16271;DHT22;8243;49.048;8.396;2022-09-09T16:04:10;19.90;99.90
16271;DHT22;8243;49.048;8.396;2022-09-09T16:06:36;19.80;99.90
16271;DHT22;8243;49.048;8.396;2022-09-09T16:09:04;19.70;99.90
16271;DHT22;8243;49.048;8.396;2022-09-09T16:11:33;19.40;99.90
16271;DHT22;8243;49.048;8.396;2022-09-09T16:13:59;19.00;99.90
16271;DHT22;8243;49.048;8.396;2022-09-09T16:16:27;18.80;99.90
16271;DHT22;8243;49.048;8.396;2022-09-09T16:18:57;18.60;99.90
16271;DHT22;8243;49.048;8.396;2022-09-09T16:21:26;18.40;99.90
16271;DHT22;8243;49.048;8.396;2022-09-09T16:24:02;18.30;99.90
16271;DHT22;8243;49.048;8.396;2022-09-09T16:26:31;18.10;99.90
16271;DHT22;8243;49.048;8.396;2022-09-09T16:28:57;18.10;99.90
16271;DHT22;8243;49.048;8.396;2022-09-09T16:31:25;18.00;99.90
16271;DHT22;8243;49.048;8.396;2022-09-09T16:33:53;18.00;99.90
16271;DHT22;8243;49.048;8.396;2022-09-09T16:36:22;17.90;99.90
16271;DHT22;8243;49.048;8.396;2022-09-09T16:38:54;17.90;99.90
16271;DHT22;8243;49.048;8.396;2022-09-09T16:41:21;17.80;99.90
16271;DHT22;8243;49.048;8.396;2022-09-09T16:43:47;17.50;99.90
16271;DHT22;8243;49.048;8.396;2022-09-09T16:46:19;17.40;99.90
16271;DHT22;8243;49.048;8.396;2022-09-09T16:48:47;17.20;99.90
16271;DHT22;8243;49.048;8.396;2022-09-09T16:51:23;17.30;99.90
16271;DHT22;8243;49.048;8.396;2022-09-09T16:53:50;17.20;99.90
16271;DHT22;8243;49.048;8.396;2022-09-09T16:56:19;17.30;99.90
16271;DHT22;8243;49.048;8.396;2022-09-09T16:58:59;17.10;99.90
16271;DHT22;8243;49.048;8.396;2022-09-09T17:01:27;17.00;99.90
16271;DHT22;8243;49.048;8.396;2022-09-09T17:03:57;17.10;99.90
16271;DHT22;8243;49.048;8.396;2022-09-09T17:06:24;17.20;99.90
16271;DHT22;8243;49.048;8.396;2022-09-09T17:09:01;17.20;99.90
16271;DHT22;8243;49.048;8.396;2022-09-09T17:11:28;17.30;99.90
16271;DHT22;8243;49.048;8.396;2022-09-09T17:13:55;17.30;99.90
16271;DHT22;8243;49.048;8.396;2022-09-09T17:16:23;17.10;99.90
16271;DHT22;8243;49.048;8.396;2022-09-09T17:18:50;17.20;99.90
16271;DHT22;8243;49.048;8.396;2022-09-09T17:21:18;17.20;99.90
16271;DHT22;8243;49.048;8.396;2022-09-09T17:23:44;17.20;99.90
16271;DHT22;8243;49.048;8.396;2022-09-09T17:26:14;17.10;99.90
16271;DHT22;8243;49.048;8.396;2022-09-09T17:28:41;16.90;99.90
16271;DHT22;8243;49.048;8.396;2022-09-09T17:31:09;16.80;99.90
16271;DHT22;8243;49.048;8.396;2022-09-09T17:33:39;16.80;99.90
16271;DHT22;8243;49.048;8.396;2022-09-09T17:38:38;16.70;99.90
16271;DHT22;8243;49.048;8.396;2022-09-09T17:41:15;16.60;99.90
16271;DHT22;8243;49.048;8.396;2022-09-09T17:43:42;16.50;99.90
16271;DHT22;8243;49.048;8.396;2022-09-09T17:46:16;16.40;99.90
16271;DHT22;8243;49.048;8.396;2022-09-09T17:48:44;16.40;99.90
16271;DHT22;8243;49.048;8.396;2022-09-09T17:51:14;16.30;99.90
16271;DHT22;8243;49.048;8.396;2022-09-09T17:53:49;16.40;99.90
16271;DHT22;8243;49.048;8.396;2022-09-09T17:56:17;16.30;99.90
16271;DHT22;8243;49.048;8.396;2022-09-09T17:58:45;16.10;99.90
16271;DHT22;8243;49.048;8.396;2022-09-09T18:01:14;16.10;99.90
16271;DHT22;8243;49.048;8.396;2022-09-09T18:03:41;16.10;99.90
16271;DHT22;8243;49.048;8.396;2022-09-09T18:06:13;16.00;99.90